createdAt,value
2023-04-02T00:01:02.410Z,6.86
2023-04-02T00:03:43.959Z,6.89
2023-04-02T00:06:32.689Z,6.92
2023-04-02T00:09:13.454Z,6.95
2023-04-02T00:11:50.812Z,6.97
2023-04-02T00:14:24.826Z,6.99
2023-04-02T00:16:53.907Z,7.01
2023-04-02T00:19:36.787Z,7.02
2023-04-02T00:22:11.225Z,7.04
2023-04-02T00:24:40.852Z,7.10
2023-04-02T00:27:13.143Z,7.15
2023-04-02T00:29:48.761Z,7.21
2023-04-02T00:32:31.746Z,7.27
2023-04-02T00:35:00.198Z,7.31
2023-04-02T00:37:30.241Z,7.33
2023-04-02T00:40:01.760Z,7.34
2023-04-02T00:42:31.392Z,7.36
2023-04-02T00:45:04.610Z,7.40
2023-04-02T00:47:37.762Z,7.44
2023-04-02T00:50:14.522Z,7.45
2023-04-02T00:52:44.137Z,7.42
2023-04-02T00:55:41.836Z,7.41
2023-04-02T00:58:17.500Z,7.42
2023-04-02T01:00:51.747Z,7.46
2023-04-02T01:03:20.160Z,7.49
2023-04-02T01:05:56.216Z,7.51
2023-04-02T01:08:46.402Z,7.53
2023-04-02T01:11:28.539Z,7.58
2023-04-02T01:14:15.100Z,7.62
2023-04-02T01:17:10.875Z,7.70
2023-04-02T01:20:23.913Z,7.74
2023-04-02T01:23:03.193Z,7.77
2023-04-02T01:25:45.981Z,7.81
2023-04-02T01:28:41.087Z,7.85
2023-04-02T01:31:10.228Z,7.89
2023-04-02T01:33:38.447Z,7.92
2023-04-02T01:36:12.816Z,7.97
2023-04-02T01:38:47.752Z,7.99
2023-04-02T01:41:24.459Z,8.02
2023-04-02T01:43:59.055Z,8.04
2023-04-02T01:46:32.251Z,8.04
2023-04-02T01:49:11.398Z,8.04
2023-04-02T01:51:43.369Z,8.04
2023-04-02T01:54:11.860Z,8.06
2023-04-02T01:56:40.331Z,8.08
2023-04-02T01:59:11.201Z,8.09
2023-04-02T02:01:52.356Z,8.12
2023-04-02T02:04:21.631Z,8.14
2023-04-02T02:06:50.630Z,8.14
2023-04-02T02:09:24.111Z,8.15
2023-04-02T02:11:52.149Z,8.17
2023-04-02T02:14:24.926Z,8.19
2023-04-02T02:16:56.670Z,8.22
2023-04-02T02:19:37.209Z,8.25
2023-04-02T02:22:24.227Z,8.28
2023-04-02T02:24:53.332Z,8.30
2023-04-02T02:27:22.456Z,8.31
2023-04-02T02:30:22.476Z,8.33
2023-04-02T02:33:25.508Z,8.34
2023-04-02T02:36:19.551Z,8.36
2023-04-02T02:39:01.126Z,8.38
2023-04-02T02:41:50.264Z,8.40
2023-04-02T02:44:21.173Z,8.42
2023-04-02T02:46:57.246Z,8.44
2023-04-02T02:49:33.020Z,8.46
2023-04-02T02:52:06.550Z,8.48
2023-04-02T02:54:43.018Z,8.51
2023-04-02T02:57:13.963Z,8.52
2023-04-02T02:59:42.697Z,8.53
2023-04-02T03:02:11.002Z,8.53
2023-04-02T03:04:39.558Z,8.51
2023-04-02T03:07:12.280Z,8.50
2023-04-02T03:10:10.654Z,8.48
2023-04-02T03:12:59.324Z,8.45
2023-04-02T03:15:36.878Z,8.40
2023-04-02T03:18:11.456Z,8.35
2023-04-02T03:22:26.316Z,8.30
2023-04-02T03:25:10.739Z,8.21
2023-04-02T03:27:40.852Z,8.17
2023-04-02T03:30:40.184Z,8.12
2023-04-02T03:33:27.388Z,8.04
2023-04-02T03:36:06.414Z,7.96
2023-04-02T03:38:41.211Z,7.90
2023-04-02T03:41:45.380Z,7.83
2023-04-02T03:44:20.962Z,7.75
2023-04-02T03:46:59.003Z,7.69
2023-04-02T03:49:34.387Z,7.63
2023-04-02T03:52:07.948Z,7.58
2023-04-02T03:54:38.049Z,7.53
2023-04-02T03:57:11.412Z,7.49
2023-04-02T03:59:54.482Z,7.46
2023-04-02T04:02:34.537Z,7.41
2023-04-02T04:05:03.911Z,7.37
2023-04-02T04:07:39.486Z,7.33
2023-04-02T04:10:08.789Z,7.32
2023-04-02T04:12:41.299Z,7.33
2023-04-02T04:15:27.283Z,7.34
2023-04-02T04:18:02.438Z,7.35
2023-04-02T04:20:57.203Z,7.36
2023-04-02T04:23:36.954Z,7.37
2023-04-02T04:26:11.207Z,7.37
2023-04-02T04:28:59.270Z,7.37
2023-04-02T04:31:34.799Z,7.39
2023-04-02T04:34:12.813Z,7.43
2023-04-02T04:36:47.926Z,7.49
2023-04-02T04:39:29.602Z,7.56
2023-04-02T04:41:59.532Z,7.65
2023-04-02T04:44:39.754Z,7.74
2023-04-02T04:47:16.268Z,7.82
2023-04-02T04:49:57.315Z,7.90
2023-04-02T04:52:36.963Z,7.98
2023-04-02T04:55:27.339Z,8.07
2023-04-02T04:58:00.937Z,8.15
2023-04-02T05:01:01.860Z,8.22
2023-04-02T05:03:36.288Z,8.31
2023-04-02T05:06:13.538Z,8.40
2023-04-02T05:08:44.640Z,8.47
2023-04-02T05:11:23.734Z,8.55
2023-04-02T05:13:54.980Z,8.63
2023-04-02T05:16:51.555Z,8.71
2023-04-02T05:19:41.553Z,8.80
2023-04-02T05:22:19.522Z,8.88
2023-04-02T05:25:12.376Z,8.96
2023-04-02T05:28:00.467Z,9.03
2023-04-02T05:31:02.109Z,9.10
2023-04-02T05:33:33.910Z,9.15
2023-04-02T05:36:11.763Z,9.20
2023-04-02T05:38:47.704Z,9.26
2023-04-02T05:41:36.551Z,9.31
2023-04-02T05:44:11.509Z,9.38
2023-04-02T05:46:49.370Z,9.46
2023-04-02T05:49:27.281Z,9.53
2023-04-02T05:51:57.722Z,9.59
2023-04-02T05:54:31.989Z,9.65
2023-04-02T05:57:04.947Z,9.68
2023-04-02T05:59:38.738Z,9.71
2023-04-02T06:02:16.620Z,9.78
2023-04-02T06:04:53.599Z,9.86
2023-04-02T06:07:28.508Z,9.95
2023-04-02T06:10:15.573Z,10.02
2023-04-02T06:12:50.471Z,10.08
2023-04-02T06:15:22.169Z,10.14
2023-04-02T06:18:01.118Z,10.16
2023-04-02T06:20:29.649Z,10.17
2023-04-02T06:23:08.029Z,10.20
2023-04-02T06:25:42.305Z,10.27
2023-04-02T06:28:23.308Z,10.36
2023-04-02T06:30:59.635Z,10.49
2023-04-02T06:33:32.204Z,10.56
2023-04-02T06:36:00.966Z,10.58
2023-04-02T06:38:32.310Z,10.57
2023-04-02T06:41:03.033Z,10.54
2023-04-02T06:43:48.083Z,10.50
2023-04-02T06:46:40.700Z,10.47
2023-04-02T06:49:25.408Z,10.44
2023-04-02T06:51:58.699Z,10.43
2023-04-02T06:54:27.598Z,10.43
2023-04-02T06:57:00.873Z,10.43
2023-04-02T06:59:40.587Z,10.42
2023-04-02T07:02:32.453Z,10.41
2023-04-02T07:05:06.000Z,10.41
2023-04-02T07:07:36.202Z,10.39
2023-04-02T07:10:09.116Z,10.38
2023-04-02T07:12:37.320Z,10.38
2023-04-02T07:15:15.578Z,10.39
2023-04-02T07:17:46.609Z,10.40
2023-04-02T07:20:34.049Z,10.38
2023-04-02T07:23:06.334Z,10.38
2023-04-02T07:25:34.704Z,10.38
2023-04-02T07:28:04.523Z,10.40
2023-04-02T07:30:33.357Z,10.41
2023-04-02T07:33:02.151Z,10.42
2023-04-02T07:35:30.330Z,10.42
2023-04-02T07:37:58.513Z,10.43
2023-04-02T07:40:26.874Z,10.45
2023-04-02T07:42:55.737Z,10.46
2023-04-02T07:45:24.257Z,10.48
2023-04-02T07:47:52.490Z,10.50
2023-04-02T07:50:20.624Z,10.51
2023-04-02T07:52:48.838Z,10.51
2023-04-02T07:55:19.663Z,10.48
2023-04-02T07:57:50.225Z,10.44
2023-04-02T08:00:19.369Z,10.42
2023-04-02T08:02:48.576Z,10.42
2023-04-02T08:05:17.953Z,10.44
2023-04-02T08:07:54.619Z,10.44
2023-04-02T08:10:22.986Z,10.44
2023-04-02T08:12:57.363Z,10.45
2023-04-02T08:15:25.698Z,10.47
2023-04-02T08:17:54.321Z,10.50
2023-04-02T08:20:22.779Z,10.56
2023-04-02T08:22:51.340Z,10.61
2023-04-02T08:25:20.756Z,10.66
2023-04-02T08:27:49.795Z,10.72
2023-04-02T08:30:18.139Z,10.83
2023-04-02T08:32:46.930Z,10.98
2023-04-02T08:35:16.422Z,11.11
2023-04-02T08:37:47.308Z,11.22
2023-04-02T08:40:27.883Z,11.31
2023-04-02T08:43:15.487Z,11.40
2023-04-02T08:46:05.102Z,11.48
2023-04-02T08:48:33.959Z,11.54
2023-04-02T08:51:02.259Z,11.55
2023-04-02T08:53:37.869Z,11.58
2023-04-02T08:56:29.516Z,11.61
2023-04-02T08:58:59.849Z,11.68
2023-04-02T09:01:35.146Z,11.71
2023-04-02T09:04:05.967Z,11.74
2023-04-02T09:06:39.059Z,11.78
2023-04-02T09:09:09.071Z,11.80
2023-04-02T09:11:44.793Z,11.75
2023-04-02T09:14:18.122Z,11.53
2023-04-02T09:16:48.660Z,11.19
2023-04-02T09:19:19.916Z,10.88
2023-04-02T09:22:06.645Z,10.65
2023-04-02T09:24:35.435Z,10.51
2023-04-02T09:27:18.601Z,10.42
2023-04-02T09:29:48.674Z,10.39
2023-04-02T09:32:42.523Z,10.36
2023-04-02T09:35:31.208Z,10.35
2023-04-02T09:38:21.933Z,10.40
2023-04-02T09:40:53.670Z,10.51
2023-04-02T09:43:27.000Z,10.59
2023-04-02T09:45:56.329Z,10.68
2023-04-02T09:48:31.197Z,10.77
2023-04-02T09:51:21.389Z,10.87
2023-04-02T09:53:51.782Z,11.01
2023-04-02T09:56:24.295Z,11.09
2023-04-02T09:59:23.012Z,11.18
2023-04-02T10:01:55.014Z,11.28
2023-04-02T10:04:46.901Z,11.34
2023-04-02T10:07:34.906Z,11.35
2023-04-02T10:10:25.914Z,11.34
2023-04-02T10:12:57.128Z,11.38
2023-04-02T10:16:07.158Z,11.39
2023-04-02T10:18:45.847Z,11.35
2023-04-02T10:21:17.991Z,11.21
2023-04-02T10:23:46.935Z,11.00
2023-04-02T10:26:24.660Z,10.84
2023-04-02T10:29:03.957Z,10.74
2023-04-02T10:31:41.293Z,10.68
2023-04-02T10:34:29.247Z,10.67
2023-04-02T10:37:01.166Z,10.70
2023-04-02T10:39:33.868Z,10.75
2023-04-02T10:42:20.014Z,10.74
2023-04-02T10:44:57.904Z,10.72
2023-04-02T10:47:46.116Z,10.74
2023-04-02T10:50:36.615Z,10.81
2023-04-02T10:53:15.914Z,10.91
2023-04-02T10:55:46.524Z,11.04
2023-04-02T10:58:26.320Z,11.16
2023-04-02T11:01:04.460Z,11.30
2023-04-02T11:03:42.033Z,11.36
2023-04-02T11:06:19.283Z,11.37
2023-04-02T11:08:49.906Z,11.40
2023-04-02T11:11:23.510Z,11.45
2023-04-02T11:14:30.079Z,11.47
2023-04-02T11:17:00.734Z,11.53
2023-04-02T11:19:33.389Z,11.57
2023-04-02T11:22:24.975Z,11.66
2023-04-02T11:24:56.431Z,11.76
2023-04-02T11:27:25.708Z,11.84
2023-04-02T11:30:00.217Z,11.89
2023-04-02T11:32:37.271Z,11.97
2023-04-02T11:35:25.211Z,12.06
2023-04-02T11:38:00.996Z,12.06
2023-04-02T11:40:47.845Z,11.99
2023-04-02T11:43:35.425Z,11.90
2023-04-02T11:46:26.673Z,11.78
2023-04-02T11:48:56.371Z,11.67
2023-04-02T11:51:24.446Z,11.61
2023-04-02T11:53:58.500Z,11.61
2023-04-02T11:56:36.085Z,11.59
2023-04-02T11:59:22.374Z,11.52
2023-04-02T12:01:53.474Z,11.52
2023-04-02T12:04:27.748Z,11.57
2023-04-02T12:07:27.971Z,11.61
2023-04-02T12:09:59.029Z,11.62
2023-04-02T12:12:39.358Z,11.64
2023-04-02T12:15:31.498Z,11.64
2023-04-02T12:18:26.137Z,11.62
2023-04-02T12:20:56.413Z,11.59
2023-04-02T12:23:31.534Z,11.60
2023-04-02T12:26:06.568Z,11.60
2023-04-02T12:28:38.114Z,11.55
2023-04-02T12:31:09.121Z,11.51
2023-04-02T12:33:41.155Z,11.54
2023-04-02T12:36:14.260Z,11.55
2023-04-02T12:38:49.671Z,11.51
2023-04-02T12:41:27.297Z,11.46
2023-04-02T12:44:06.512Z,11.44
2023-04-02T12:46:35.280Z,11.45
2023-04-02T12:49:35.037Z,11.47
2023-04-02T12:52:09.227Z,11.49
2023-04-02T12:54:46.575Z,11.48
2023-04-02T12:57:20.683Z,11.51
2023-04-02T12:59:48.797Z,11.61
2023-04-02T13:02:27.605Z,11.77
2023-04-02T13:04:57.362Z,11.89
2023-04-02T13:07:25.824Z,11.94
2023-04-02T13:10:05.128Z,11.98
2023-04-02T13:12:40.035Z,11.98
2023-04-02T13:15:19.092Z,11.96
2023-04-02T13:17:48.849Z,11.90
2023-04-02T13:20:29.835Z,11.84
2023-04-02T13:22:59.377Z,11.83
2023-04-02T13:25:32.359Z,11.82
2023-04-02T13:28:01.585Z,11.79
2023-04-02T13:30:36.003Z,11.75
2023-04-02T13:36:34.818Z,11.66
2023-04-02T13:39:03.540Z,11.56
2023-04-02T13:41:38.106Z,11.47
2023-04-02T13:44:06.718Z,11.31
2023-04-02T15:41:15.149Z,9.45
2023-04-02T15:44:03.672Z,9.40
2023-04-02T15:46:56.055Z,9.37
2023-04-02T15:49:24.224Z,9.32
2023-04-02T15:52:23.039Z,9.26
2023-04-02T15:55:01.308Z,9.21
2023-04-02T15:57:44.939Z,9.14
2023-04-02T16:00:31.206Z,9.08
2023-04-02T16:03:02.769Z,9.04
2023-04-02T16:06:00.536Z,8.98
2023-04-02T16:08:59.113Z,8.92
2023-04-02T16:11:27.546Z,8.89
2023-04-02T16:14:10.348Z,8.86
2023-04-02T16:16:38.718Z,8.82
2023-04-02T16:19:30.679Z,8.79
2023-04-02T16:22:27.780Z,8.78
2023-04-02T16:25:07.291Z,8.73
2023-04-02T16:27:37.801Z,8.69
2023-04-02T16:30:34.621Z,8.64
2023-04-02T16:33:14.310Z,8.60
2023-04-02T16:36:22.056Z,8.55
2023-04-02T16:39:01.635Z,8.48
2023-04-02T16:42:10.563Z,8.44
2023-04-02T16:45:05.086Z,8.39
2023-04-02T16:47:50.888Z,8.31
2023-04-02T16:50:25.140Z,8.24
2023-04-02T16:53:17.244Z,8.19
2023-04-02T16:55:49.283Z,8.15
2023-04-02T16:58:43.793Z,8.12
2023-04-02T17:01:21.974Z,8.08
2023-04-02T17:03:56.838Z,8.05
2023-04-02T17:06:42.776Z,8.01
2023-04-02T17:09:19.002Z,7.96
2023-04-02T17:12:04.949Z,7.93
2023-04-02T17:14:57.417Z,7.91
2023-04-02T17:17:25.690Z,7.90
2023-04-02T17:19:56.537Z,7.90
2023-04-02T17:22:24.561Z,7.90
2023-04-02T17:25:02.809Z,7.90
2023-04-02T17:27:37.256Z,7.93
2023-04-02T17:30:13.186Z,7.93
2023-04-02T17:32:42.708Z,7.94
2023-04-02T17:38:08.931Z,7.97
2023-04-02T17:40:46.172Z,7.94
2023-04-02T17:43:38.007Z,7.90
2023-04-02T17:46:17.917Z,7.84
2023-04-02T17:48:48.648Z,7.76
2023-04-02T17:51:40.042Z,7.68
2023-04-02T17:54:25.612Z,7.60
2023-04-02T17:57:04.887Z,7.50
2023-04-02T17:59:59.471Z,7.42
2023-04-02T18:02:49.625Z,7.31
2023-04-02T18:06:07.405Z,7.23
2023-04-02T18:08:59.267Z,7.18
2023-04-02T18:12:18.849Z,7.14
2023-04-02T18:14:58.628Z,7.11
2023-04-02T18:17:32.866Z,7.08
2023-04-02T18:20:38.409Z,7.03
2023-04-02T18:23:43.890Z,6.99
2023-04-02T18:26:13.546Z,6.93
2023-04-02T18:28:45.463Z,6.88
2023-04-02T18:31:24.362Z,6.84
2023-04-02T18:34:09.874Z,6.80
2023-04-02T18:36:44.649Z,6.77
2023-04-02T18:39:37.150Z,6.73
2023-04-02T18:42:06.551Z,6.68
2023-04-02T18:45:10.621Z,6.65
2023-04-02T18:47:59.044Z,6.63
2023-04-02T18:50:39.705Z,6.60
2023-04-02T18:53:13.661Z,6.56
2023-04-02T18:55:55.620Z,6.52
2023-04-02T18:58:32.946Z,6.48
2023-04-02T19:01:06.131Z,6.45
2023-04-02T19:03:55.120Z,6.39
2023-04-02T19:06:24.890Z,6.35
2023-04-02T19:08:58.921Z,6.31
2023-04-02T19:11:31.430Z,6.27
2023-04-02T19:14:01.264Z,6.23
2023-04-02T19:16:45.507Z,6.20
2023-04-02T19:19:21.880Z,6.16
2023-04-02T19:22:30.168Z,6.10
2023-04-02T19:24:58.510Z,6.03
2023-04-02T19:27:28.706Z,5.99
2023-04-02T19:30:15.194Z,5.96
2023-04-02T19:32:49.245Z,5.96
2023-04-02T19:35:38.952Z,5.96
2023-04-02T19:38:22.792Z,5.95
2023-04-02T19:40:54.863Z,5.93
2023-04-02T19:43:22.874Z,5.90
2023-04-02T19:45:53.220Z,5.89
2023-04-02T19:48:23.511Z,5.89
2023-04-02T19:50:51.592Z,5.90
2023-04-02T19:53:20.353Z,5.90
2023-04-02T19:55:48.960Z,5.90
2023-04-02T19:58:35.727Z,5.91
2023-04-02T20:01:03.872Z,5.92
2023-04-02T20:03:32.641Z,5.91
2023-04-02T20:06:02.263Z,5.89
2023-04-02T20:08:31.975Z,5.88
2023-04-02T20:11:00.677Z,5.86
2023-04-02T20:13:31.238Z,5.87
2023-04-02T20:16:01.376Z,5.86
2023-04-02T20:18:30.077Z,5.87
2023-04-02T20:21:06.368Z,5.87
2023-04-02T20:23:34.952Z,5.87
2023-04-02T20:26:03.482Z,5.88
2023-04-02T20:28:33.180Z,5.88
2023-04-02T20:31:14.917Z,5.85
2023-04-02T20:33:44.445Z,5.82
2023-04-02T20:36:15.826Z,5.79
2023-04-02T20:38:45.430Z,5.76
2023-04-02T20:41:16.131Z,5.74
2023-04-02T20:43:45.816Z,5.73
2023-04-02T20:46:14.558Z,5.73
2023-04-02T20:48:43.733Z,5.73
2023-04-02T20:51:14.324Z,5.71
2023-04-02T20:53:42.882Z,5.72
2023-04-02T20:56:14.144Z,5.72
2023-04-02T20:58:42.166Z,5.70
2023-04-02T21:01:17.025Z,5.69
2023-04-02T21:03:49.393Z,5.67
2023-04-02T21:06:21.662Z,5.66
2023-04-02T21:08:50.166Z,5.63
2023-04-02T21:11:22.471Z,5.63
2023-04-02T21:13:51.708Z,5.60
2023-04-02T21:16:21.972Z,5.58
2023-04-02T21:18:52.268Z,5.59
2023-04-02T21:21:21.251Z,5.58
2023-04-02T21:24:01.690Z,5.57
2023-04-02T21:26:33.291Z,5.57
2023-04-02T21:29:03.047Z,5.56
2023-04-02T21:31:35.048Z,5.56
2023-04-02T21:34:03.503Z,5.55
2023-04-02T21:36:35.007Z,5.55
2023-04-02T21:39:06.852Z,5.56
2023-04-02T21:41:38.521Z,5.55
2023-04-02T21:44:07.638Z,5.55
2023-04-02T21:46:37.544Z,5.54
2023-04-02T21:49:06.022Z,5.52
2023-04-02T21:51:34.451Z,5.52
2023-04-02T21:54:03.344Z,5.51
2023-04-02T21:56:42.291Z,5.51
2023-04-02T21:59:12.230Z,5.50
2023-04-02T22:01:42.302Z,5.51
2023-04-02T22:04:16.572Z,5.50
2023-04-02T22:06:45.076Z,5.50
2023-04-02T22:09:18.824Z,5.51
2023-04-02T22:11:59.022Z,5.53
2023-04-02T22:14:27.927Z,5.55
2023-04-02T22:16:56.260Z,5.56
2023-04-02T22:19:25.795Z,5.58
2023-04-02T22:21:54.185Z,5.59
2023-04-02T22:24:25.491Z,5.60
2023-04-02T22:26:54.031Z,5.59
2023-04-02T22:29:22.222Z,5.59
2023-04-02T22:31:50.609Z,5.59
2023-04-02T22:34:19.417Z,5.60
2023-04-02T22:36:48.206Z,5.62
2023-04-02T22:39:17.194Z,5.61
2023-04-02T22:41:45.297Z,5.59
2023-04-02T22:44:14.378Z,5.58
2023-04-02T22:46:42.478Z,5.57
2023-04-02T22:49:11.700Z,5.56
2023-04-02T22:51:39.912Z,5.57
2023-04-02T22:54:08.713Z,5.57
2023-04-02T22:56:37.670Z,5.56
2023-04-02T22:59:06.866Z,5.52
2023-04-02T23:01:35.772Z,5.48
2023-04-02T23:04:05.517Z,5.46
2023-04-02T23:06:35.031Z,5.44
2023-04-02T23:09:04.259Z,5.43
2023-04-02T23:11:35.511Z,5.42
2023-04-02T23:14:04.108Z,5.41
2023-04-02T23:16:32.468Z,5.38
2023-04-02T23:19:01.603Z,5.36
2023-04-02T23:21:30.320Z,5.34
2023-04-02T23:23:58.809Z,5.34
2023-04-02T23:26:29.458Z,5.33
2023-04-02T23:28:58.778Z,5.31
2023-04-02T23:31:27.904Z,5.30
2023-04-02T23:33:56.526Z,5.29
2023-04-02T23:36:29.555Z,5.27
2023-04-02T23:39:01.153Z,5.28
2023-04-02T23:41:29.312Z,5.28
2023-04-02T23:43:57.782Z,5.28
2023-04-02T23:46:26.556Z,5.27
2023-04-02T23:48:55.047Z,5.26
2023-04-02T23:51:24.269Z,5.24
2023-04-02T23:53:52.773Z,5.22
2023-04-02T23:56:21.857Z,5.20
2023-04-02T23:58:50.326Z,5.17
